createdAt,value
2018-01-24T00:00:19.962Z,94.40
2018-01-24T00:05:03.243Z,94.80
2018-01-24T00:09:46.587Z,94.60
2018-01-24T00:14:29.946Z,94.80
2018-01-24T00:19:14.300Z,95.10
2018-01-24T00:23:57.636Z,95.10
2018-01-24T00:28:41.752Z,95.30
2018-01-24T00:33:25.054Z,95.20
2018-01-24T00:38:08.476Z,95.40
2018-01-24T00:42:51.781Z,95.10
2018-01-24T00:47:35.101Z,95.40
2018-01-24T00:52:18.426Z,95.70
2018-01-24T00:57:01.730Z,95.90
2018-01-24T01:01:45.070Z,96.00
2018-01-24T01:06:29.182Z,96.40
2018-01-24T01:11:12.490Z,96.40
2018-01-24T01:15:56.552Z,97.30
2018-01-24T01:20:40.627Z,97.60
2018-01-24T01:25:23.918Z,97.60
2018-01-24T01:30:07.314Z,97.60
2018-01-24T01:34:50.648Z,97.40
2018-01-24T01:39:33.952Z,97.30
2018-01-24T01:44:17.993Z,97.00
2018-01-24T01:49:01.316Z,97.00
2018-01-24T01:53:44.648Z,96.90
2018-01-24T01:58:27.943Z,96.70
2018-01-24T02:03:12.041Z,96.50
2018-01-24T02:07:55.362Z,96.50
2018-01-24T02:12:38.645Z,97.10
2018-01-24T02:17:21.949Z,97.80
2018-01-24T02:22:05.282Z,98.20
2018-01-24T02:26:48.615Z,98.80
2018-01-24T02:31:31.977Z,99.70
2018-01-24T02:36:15.317Z,99.90
2018-01-24T02:40:58.668Z,99.90
2018-01-24T02:45:42.017Z,99.90
2018-01-24T02:50:25.397Z,99.90
2018-01-24T02:55:09.477Z,99.90
2018-01-24T02:59:52.847Z,99.90
2018-01-24T03:04:36.184Z,99.90
2018-01-24T03:09:19.470Z,99.90
2018-01-24T03:14:03.546Z,99.80
2018-01-24T03:18:46.937Z,99.80
2018-01-24T03:23:30.254Z,99.70
2018-01-24T03:28:13.949Z,99.70
2018-01-24T03:32:57.249Z,99.60
2018-01-24T03:37:40.555Z,99.70
2018-01-24T03:42:23.945Z,99.70
2018-01-24T03:47:07.247Z,99.70
2018-01-24T03:51:50.569Z,99.40
2018-01-24T03:56:34.645Z,98.90
2018-01-24T04:01:17.958Z,98.90
2018-01-24T04:06:02.378Z,98.50
2018-01-24T04:10:45.676Z,98.50
2018-01-24T04:15:29.880Z,98.70
2018-01-24T04:20:13.198Z,98.70
2018-01-24T04:24:56.534Z,99.20
2018-01-24T04:29:39.886Z,99.20
2018-01-24T04:34:23.158Z,99.30
2018-01-24T04:39:06.492Z,99.00
2018-01-24T04:43:49.798Z,99.00
2018-01-24T04:48:33.130Z,99.00
2018-01-24T04:53:16.454Z,98.90
2018-01-24T04:58:00.028Z,98.90
2018-01-24T05:02:43.315Z,98.70
2018-01-24T05:07:26.657Z,98.70
2018-01-24T05:12:10.737Z,98.60
2018-01-24T05:16:54.089Z,98.60
2018-01-24T05:21:38.299Z,98.60
2018-01-24T05:26:21.681Z,98.40
2018-01-24T05:31:04.994Z,98.40
2018-01-24T05:35:49.093Z,98.40
2018-01-24T05:40:32.406Z,98.40
2018-01-24T05:45:15.772Z,98.40
2018-01-24T05:49:59.112Z,98.30
2018-01-24T05:54:42.459Z,98.50
2018-01-24T05:59:25.746Z,98.60
2018-01-24T06:04:09.075Z,98.60
2018-01-24T06:08:52.422Z,98.70
2018-01-24T06:13:35.984Z,98.80
2018-01-24T06:18:19.286Z,98.70
2018-01-24T06:23:02.607Z,99.00
2018-01-24T06:27:45.914Z,99.10
2018-01-24T06:32:29.251Z,99.00
2018-01-24T06:37:12.549Z,99.10
2018-01-24T06:41:55.866Z,99.10
2018-01-24T06:46:39.193Z,99.10
2018-01-24T06:51:22.493Z,98.70
2018-01-24T06:56:06.577Z,98.20
2018-01-24T07:00:49.941Z,98.20
2018-01-24T07:05:33.273Z,97.90
2018-01-24T07:10:16.626Z,97.50
2018-01-24T07:14:59.941Z,96.90
2018-01-24T07:19:43.271Z,97.00
2018-01-24T07:24:26.599Z,96.70
2018-01-24T07:29:09.910Z,96.70
2018-01-24T07:33:53.249Z,96.30
2018-01-24T07:38:36.605Z,96.10
2018-01-24T07:43:19.930Z,95.90
2018-01-24T07:48:03.247Z,95.80
2018-01-24T07:52:46.546Z,95.40
2018-01-24T07:57:30.640Z,95.50
2018-01-24T08:02:13.898Z,95.50
2018-01-24T08:06:57.224Z,95.30
2018-01-24T08:11:40.598Z,95.10
2018-01-24T08:16:23.935Z,94.90
2018-01-24T08:21:08.118Z,94.80
2018-01-24T08:25:52.271Z,94.70
2018-01-24T08:30:35.587Z,94.70
2018-01-24T08:35:18.899Z,94.70
2018-01-24T08:40:02.214Z,94.60
2018-01-24T08:44:45.561Z,94.80
2018-01-24T08:49:28.848Z,94.80
2018-01-24T08:54:12.137Z,94.80
2018-01-24T08:58:55.467Z,94.70
2018-01-24T09:03:38.764Z,94.60
2018-01-24T09:08:22.089Z,94.60
2018-01-24T09:13:05.396Z,94.50
2018-01-24T09:17:48.731Z,94.40
2018-01-24T09:22:32.074Z,94.00
2018-01-24T09:27:15.385Z,93.80
2018-01-24T09:31:59.477Z,93.40
2018-01-24T09:36:42.754Z,93.40
2018-01-24T09:41:26.078Z,93.30
2018-01-24T09:46:09.419Z,93.40
2018-01-24T09:50:52.740Z,93.10
2018-01-24T09:55:36.056Z,93.00
2018-01-24T10:00:20.127Z,91.10
2018-01-24T10:05:03.435Z,91.10
2018-01-24T10:09:47.516Z,90.20
2018-01-24T10:14:31.103Z,90.10
2018-01-24T10:19:14.403Z,90.60
2018-01-24T10:23:57.749Z,90.30
2018-01-24T10:28:41.093Z,88.90
2018-01-24T10:33:24.405Z,89.60
2018-01-24T10:38:08.549Z,89.60
2018-01-24T10:42:51.878Z,89.50
2018-01-24T10:47:35.191Z,89.90
2018-01-24T10:52:18.502Z,90.80
2018-01-24T10:57:01.844Z,91.10
2018-01-24T11:01:45.130Z,90.80
2018-01-24T11:06:28.476Z,90.90
2018-01-24T11:11:11.830Z,90.80
2018-01-24T11:15:55.173Z,90.60
2018-01-24T11:20:38.506Z,90.10
2018-01-24T11:25:21.793Z,90.30
2018-01-24T11:30:05.092Z,90.20
2018-01-24T11:34:48.433Z,88.90
2018-01-24T11:39:31.779Z,88.90
2018-01-24T11:44:15.150Z,88.20
2018-01-24T11:48:58.476Z,87.70
2018-01-24T11:53:42.584Z,87.70
2018-01-24T11:58:25.901Z,87.60
2018-01-24T12:03:09.227Z,86.50
2018-01-24T12:07:52.582Z,85.20
2018-01-24T12:12:35.893Z,86.00
2018-01-24T12:17:20.098Z,85.30
2018-01-24T12:22:03.419Z,85.30
2018-01-24T12:26:46.744Z,85.50
2018-01-24T12:31:30.038Z,84.70
2018-01-24T12:36:13.412Z,85.40
2018-01-24T12:40:57.524Z,85.80
2018-01-24T12:45:40.858Z,85.70
2018-01-24T12:50:24.158Z,85.30
2018-01-24T12:55:07.594Z,83.80
2018-01-24T12:59:50.994Z,84.00
2018-01-24T13:04:34.333Z,83.70
2018-01-24T13:09:17.680Z,83.60
2018-01-24T13:14:01.002Z,84.50
2018-01-24T13:18:44.357Z,84.10
2018-01-24T13:23:27.682Z,83.90
2018-01-24T13:28:11.079Z,84.60
2018-01-24T13:32:55.145Z,85.00
2018-01-24T13:37:38.479Z,85.00
2018-01-24T13:42:21.848Z,84.90
2018-01-24T13:47:05.193Z,85.00
2018-01-24T13:51:48.519Z,85.10
2018-01-24T13:56:31.832Z,85.70
2018-01-24T14:01:15.165Z,85.80
2018-01-24T14:05:59.329Z,85.80
2018-01-24T14:10:43.387Z,87.10
2018-01-24T14:15:26.713Z,87.10
2018-01-24T14:20:10.029Z,86.80
2018-01-24T14:24:53.403Z,87.10
2018-01-24T14:29:36.758Z,87.30
2018-01-24T14:34:20.094Z,87.60
2018-01-24T14:39:04.190Z,88.80
2018-01-24T14:43:47.540Z,88.70
2018-01-24T14:48:30.858Z,89.10
2018-01-24T14:53:14.305Z,89.60
2018-01-24T14:57:57.674Z,90.00
2018-01-24T15:02:40.990Z,90.20
2018-01-24T15:07:24.344Z,90.60
2018-01-24T15:12:08.434Z,91.00
2018-01-24T15:16:51.782Z,91.20
2018-01-24T15:21:35.908Z,91.80
2018-01-24T15:26:19.192Z,91.80
2018-01-24T15:31:03.292Z,93.20
2018-01-24T15:35:46.631Z,93.20
2018-01-24T15:40:29.960Z,93.60
2018-01-24T15:45:13.299Z,94.10
2018-01-24T15:49:56.712Z,94.40
2018-01-24T15:54:40.809Z,94.90
2018-01-24T15:59:24.141Z,94.80
2018-01-24T16:04:07.558Z,95.00
2018-01-24T16:08:50.883Z,95.30
2018-01-24T16:13:35.031Z,95.40
2018-01-24T16:18:18.342Z,95.40
2018-01-24T16:23:01.642Z,95.30
2018-01-24T16:27:44.948Z,95.50
2018-01-24T16:32:29.050Z,95.80
2018-01-24T16:37:12.404Z,95.70
2018-01-24T16:41:55.735Z,95.70
2018-01-24T16:46:39.068Z,95.80
2018-01-24T16:51:22.384Z,96.00
2018-01-24T16:56:05.685Z,95.50
2018-01-24T17:00:49.035Z,95.30
2018-01-24T17:05:32.373Z,94.80
2018-01-24T17:10:15.703Z,94.40
2018-01-24T17:14:59.034Z,94.00
2018-01-24T17:19:44.144Z,94.00
2018-01-24T17:24:28.287Z,94.10
2018-01-24T17:29:11.639Z,94.10
2018-01-24T17:33:55.743Z,94.70
2018-01-24T17:38:39.079Z,94.70
2018-01-24T17:43:23.089Z,94.90
2018-01-24T17:48:06.405Z,95.10
2018-01-24T17:52:49.726Z,95.40
2018-01-24T17:57:33.110Z,95.50
2018-01-24T18:02:16.418Z,95.90
2018-01-24T18:06:59.727Z,95.80
2018-01-24T18:11:43.066Z,96.00
2018-01-24T18:16:27.158Z,96.10
2018-01-24T18:21:10.682Z,96.10
2018-01-24T18:25:54.024Z,96.70
2018-01-24T18:30:37.362Z,96.20
2018-01-24T18:35:20.864Z,96.20
2018-01-24T18:40:04.190Z,96.30
2018-01-24T18:44:47.524Z,96.60
2018-01-24T18:49:30.814Z,96.80
2018-01-24T18:54:14.122Z,97.30
2018-01-24T18:58:58.409Z,97.30
2018-01-24T19:03:42.495Z,97.80
2018-01-24T19:08:25.864Z,97.80
2018-01-24T19:13:09.452Z,98.10
2018-01-24T19:17:56.711Z,98.00
2018-01-24T19:22:41.263Z,97.90
2018-01-24T19:27:24.766Z,98.50
2018-01-24T19:32:08.312Z,99.10
2018-01-24T19:36:51.835Z,99.10
2018-01-24T19:41:35.285Z,99.60
2018-01-24T19:46:19.476Z,99.90
2018-01-24T19:51:02.852Z,99.90
2018-01-24T19:55:46.961Z,93.20
2018-01-24T20:00:30.286Z,93.20
2018-01-24T20:05:13.621Z,92.70
2018-01-24T20:09:56.960Z,91.50
2018-01-24T20:14:40.264Z,91.30
2018-01-24T20:19:23.612Z,91.20
2018-01-24T20:24:07.774Z,91.00
2018-01-24T20:28:51.126Z,90.90
2018-01-24T20:33:34.469Z,90.70
2018-01-24T20:38:17.745Z,90.30
2018-01-24T20:43:01.064Z,89.10
2018-01-24T20:47:44.366Z,87.40
2018-01-24T20:52:27.695Z,85.90
2018-01-24T20:57:11.254Z,84.40
2018-01-24T21:01:54.609Z,82.20
2018-01-24T21:06:37.941Z,81.00
2018-01-24T21:11:21.237Z,79.40
2018-01-24T21:16:04.567Z,78.70
2018-01-24T21:20:47.865Z,76.50
2018-01-24T21:25:31.191Z,73.30
2018-01-24T21:30:21.377Z,71.00
2018-01-24T21:35:16.529Z,68.40
2018-01-24T21:39:59.875Z,67.70
2018-01-24T21:44:44.040Z,66.60
2018-01-24T21:49:27.364Z,66.60
2018-01-24T21:54:10.670Z,66.80
2018-01-24T21:58:53.995Z,67.10
2018-01-24T22:03:38.148Z,68.90
2018-01-24T22:08:22.229Z,69.40
2018-01-24T22:13:05.572Z,69.50
2018-01-24T22:17:49.680Z,67.40
2018-01-24T22:22:32.993Z,67.30
2018-01-24T22:27:16.335Z,67.50
2018-01-24T22:31:59.688Z,65.70
2018-01-24T22:36:42.992Z,66.70
2018-01-24T22:41:26.346Z,67.60
2018-01-24T22:46:09.678Z,67.40
2018-01-24T22:50:53.004Z,68.50
2018-01-24T22:55:37.105Z,67.70
2018-01-24T23:00:20.507Z,67.70
2018-01-24T23:05:03.785Z,67.90
2018-01-24T23:09:47.122Z,67.60
2018-01-24T23:14:30.594Z,67.90
2018-01-24T23:19:13.890Z,70.20
2018-01-24T23:23:57.297Z,70.90
2018-01-24T23:28:40.544Z,71.30
2018-01-24T23:33:23.819Z,72.50
2018-01-24T23:38:07.138Z,70.20
2018-01-24T23:42:50.548Z,72.50
2018-01-24T23:47:33.878Z,73.40
2018-01-24T23:52:17.213Z,72.80
2018-01-24T23:57:00.584Z,73.70
